createdAt,value
2022-09-28T00:01:17.513Z,90.43
2022-09-28T00:03:45.452Z,91.01
2022-09-28T00:06:13.709Z,89.83
2022-09-28T00:08:40.755Z,89.99
2022-09-28T00:11:11.101Z,90.04
2022-09-28T00:13:37.760Z,90.53
2022-09-28T00:16:11.465Z,91.13
2022-09-28T00:18:37.916Z,90.51
2022-09-28T00:21:06.462Z,90.19
2022-09-28T00:23:33.305Z,90.43
2022-09-28T00:26:06.371Z,90.64
2022-09-28T00:28:32.772Z,89.54
2022-09-28T00:30:59.335Z,89.99
2022-09-28T00:33:25.945Z,90.37
2022-09-28T00:35:57.169Z,89.95
2022-09-28T00:38:27.489Z,90.06
2022-09-28T00:40:55.766Z,90.58
2022-09-28T00:43:23.610Z,90.72
2022-09-28T00:46:06.473Z,90.30
2022-09-28T00:48:36.259Z,89.94
2022-09-28T00:51:09.045Z,89.25
2022-09-28T00:53:38.418Z,89.50
2022-09-28T00:56:09.391Z,89.66
2022-09-28T00:58:46.863Z,88.96
2022-09-28T01:01:13.871Z,89.91
2022-09-28T01:03:45.160Z,89.00
2022-09-28T01:06:23.713Z,89.16
2022-09-28T01:08:53.220Z,89.19
2022-09-28T01:11:19.817Z,89.98
2022-09-28T01:13:48.067Z,89.11
2022-09-28T01:16:23.652Z,90.64
2022-09-28T01:19:29.028Z,89.04
2022-09-28T01:22:07.415Z,88.99
2022-09-28T01:24:43.237Z,89.88
2022-09-28T01:27:26.617Z,90.69
2022-09-28T01:30:09.414Z,89.36
2022-09-28T01:32:55.150Z,89.86
2022-09-28T01:35:24.677Z,89.99
2022-09-28T01:38:01.732Z,90.50
2022-09-28T01:40:30.196Z,90.83
2022-09-28T01:43:08.423Z,90.59
2022-09-28T01:45:46.406Z,90.29
2022-09-28T01:48:18.579Z,90.12
2022-09-28T01:50:49.061Z,89.46
2022-09-28T01:53:22.268Z,89.27
2022-09-28T01:55:55.363Z,89.39
2022-09-28T01:59:07.966Z,89.00
2022-09-28T02:01:41.073Z,89.68
2022-09-28T02:04:14.260Z,89.56
2022-09-28T02:06:56.746Z,89.75
2022-09-28T02:09:33.897Z,90.47
2022-09-28T02:12:06.466Z,90.84
2022-09-28T02:14:36.383Z,90.51
2022-09-28T02:17:03.280Z,90.48
2022-09-28T02:19:31.064Z,90.71
2022-09-28T02:22:23.133Z,90.59
2022-09-28T02:24:59.717Z,91.31
2022-09-28T02:27:36.320Z,90.53
2022-09-28T02:30:05.453Z,89.29
2022-09-28T02:32:34.000Z,89.77
2022-09-28T02:35:00.426Z,90.36
2022-09-28T02:37:27.527Z,90.23
2022-09-28T02:39:53.900Z,90.55
2022-09-28T02:42:25.713Z,89.45
2022-09-28T02:45:16.191Z,90.13
2022-09-28T02:48:12.999Z,89.08
2022-09-28T02:50:57.616Z,90.05
2022-09-28T02:53:47.003Z,90.13
2022-09-28T02:56:33.985Z,90.55
2022-09-28T02:59:21.094Z,89.61
2022-09-28T03:02:05.089Z,89.54
2022-09-28T03:04:48.930Z,90.25
2022-09-28T03:07:24.705Z,89.90
2022-09-28T03:10:12.591Z,89.70
2022-09-28T03:12:39.492Z,90.24
2022-09-28T03:15:10.122Z,90.75
2022-09-28T03:17:36.886Z,90.67
2022-09-28T03:20:04.937Z,90.39
2022-09-28T03:22:31.513Z,90.80
2022-09-28T03:24:57.891Z,90.30
2022-09-28T03:27:24.256Z,89.19
2022-09-28T03:29:50.618Z,89.13
2022-09-28T03:32:17.115Z,88.99
2022-09-28T03:34:43.495Z,89.65
2022-09-28T03:37:09.855Z,89.75
2022-09-28T03:39:36.764Z,89.98
2022-09-28T03:42:03.299Z,90.60
2022-09-28T03:44:29.641Z,90.97
2022-09-28T03:46:56.096Z,91.05
2022-09-28T03:49:22.420Z,90.28
2022-09-28T03:51:48.838Z,89.63
2022-09-28T03:54:15.187Z,90.59
2022-09-28T03:56:41.556Z,90.34
2022-09-28T03:59:07.912Z,90.90
2022-09-28T04:01:34.393Z,90.25
2022-09-28T04:04:00.988Z,90.25
2022-09-28T04:06:27.713Z,91.17
2022-09-28T04:08:54.060Z,90.21
2022-09-28T04:11:20.473Z,90.18
2022-09-28T04:13:50.345Z,90.55
2022-09-28T04:16:17.865Z,90.90
2022-09-28T04:18:44.476Z,90.72
2022-09-28T04:21:12.476Z,90.63
2022-09-28T04:23:40.254Z,90.28
2022-09-28T04:26:09.217Z,90.07
2022-09-28T04:28:54.156Z,91.02
2022-09-28T04:31:23.449Z,91.11
2022-09-28T04:33:50.075Z,90.11
2022-09-28T04:36:16.532Z,89.87
2022-09-28T04:38:56.038Z,90.54
2022-09-28T04:41:22.772Z,90.44
2022-09-28T04:43:50.238Z,90.48
2022-09-28T04:46:16.927Z,90.58
2022-09-28T04:48:43.451Z,90.86
2022-09-28T04:51:09.854Z,91.11
2022-09-28T04:53:36.225Z,91.05
2022-09-28T04:56:11.611Z,90.82
2022-09-28T04:58:38.711Z,90.15
2022-09-28T05:01:07.969Z,90.28
2022-09-28T05:03:34.451Z,89.88
2022-09-28T05:06:01.474Z,89.14
2022-09-28T05:08:28.335Z,90.08
2022-09-28T05:11:03.208Z,90.24
2022-09-28T05:13:30.567Z,90.21
2022-09-28T05:16:03.060Z,90.35
2022-09-28T05:18:32.145Z,89.46
2022-09-28T05:20:58.504Z,90.19
2022-09-28T05:23:24.883Z,89.70
2022-09-28T05:25:51.422Z,89.39
2022-09-28T05:28:25.175Z,88.74
2022-09-28T05:30:52.168Z,89.61
2022-09-28T05:33:18.585Z,89.58
2022-09-28T05:35:45.031Z,89.70
2022-09-28T05:38:11.469Z,89.22
2022-09-28T05:40:37.951Z,89.01
2022-09-28T05:43:04.319Z,89.74
2022-09-28T05:45:30.785Z,90.50
2022-09-28T05:47:57.260Z,90.02
2022-09-28T05:50:24.288Z,90.22
2022-09-28T05:53:05.136Z,89.15
2022-09-28T05:55:32.403Z,89.72
2022-09-28T05:58:00.249Z,89.03
2022-09-28T06:00:31.022Z,88.27
2022-09-28T06:03:08.971Z,88.95
2022-09-28T06:05:36.923Z,88.17
2022-09-28T06:08:08.126Z,88.48
2022-09-28T06:10:34.621Z,87.98
2022-09-28T06:13:01.716Z,88.62
2022-09-28T06:15:30.861Z,88.12
2022-09-28T06:18:01.045Z,87.62
2022-09-28T06:20:31.025Z,87.80
2022-09-28T06:22:57.448Z,87.53
2022-09-28T06:25:24.815Z,87.89
2022-09-28T06:27:58.923Z,88.79
2022-09-28T06:30:27.034Z,87.94
2022-09-28T06:32:55.386Z,88.38
2022-09-28T06:35:26.050Z,89.16
2022-09-28T06:37:53.755Z,88.48
2022-09-28T06:40:21.140Z,87.60
2022-09-28T06:43:11.994Z,87.04
2022-09-28T06:45:38.720Z,87.76
2022-09-28T06:48:06.309Z,87.39
2022-09-28T06:50:41.122Z,88.10
2022-09-28T06:53:10.370Z,87.93
2022-09-28T06:55:39.750Z,87.93
2022-09-28T06:58:09.453Z,87.96
2022-09-28T07:00:37.418Z,87.78
2022-09-28T07:03:06.335Z,86.94
2022-09-28T07:05:36.722Z,87.79
2022-09-28T07:08:04.511Z,87.70
2022-09-28T07:10:31.753Z,87.95
2022-09-28T07:13:05.363Z,87.37
2022-09-28T07:15:33.475Z,87.90
2022-09-28T07:18:03.695Z,86.75
2022-09-28T07:20:40.821Z,86.59
2022-09-28T07:23:19.027Z,86.62
2022-09-28T07:25:47.970Z,87.95
2022-09-28T07:28:15.517Z,88.87
2022-09-28T07:30:43.233Z,89.56
2022-09-28T07:33:12.518Z,87.66
2022-09-28T07:35:39.202Z,87.26
2022-09-28T07:38:06.996Z,86.03
2022-09-28T07:40:53.910Z,86.03
2022-09-28T07:43:21.505Z,85.33
2022-09-28T07:45:49.932Z,86.53
2022-09-28T07:48:17.161Z,86.52
2022-09-28T07:50:51.705Z,85.10
2022-09-28T07:53:23.593Z,84.69
2022-09-28T07:56:02.058Z,84.37
2022-09-28T07:58:28.482Z,84.19
2022-09-28T08:00:54.939Z,83.67
2022-09-28T08:03:24.392Z,84.46
2022-09-28T08:05:50.725Z,84.46
2022-09-28T08:08:18.459Z,83.04
2022-09-28T08:10:47.112Z,82.59
2022-09-28T08:13:15.066Z,82.97
2022-09-28T08:15:42.526Z,83.68
2022-09-28T08:18:09.371Z,82.78
2022-09-28T08:20:54.292Z,83.06
2022-09-28T08:23:20.773Z,82.60
2022-09-28T08:25:48.991Z,81.81
2022-09-28T08:28:19.798Z,82.33
2022-09-28T08:30:47.378Z,82.47
2022-09-28T08:33:15.366Z,81.78
2022-09-28T08:35:42.081Z,82.72
2022-09-28T08:38:09.385Z,82.41
2022-09-28T08:40:55.502Z,83.49
2022-09-28T08:43:49.629Z,82.97
2022-09-28T08:46:23.907Z,83.22
2022-09-28T08:49:23.782Z,84.03
2022-09-28T08:52:05.842Z,84.72
2022-09-28T08:54:43.057Z,83.28
2022-09-28T08:57:15.355Z,84.33
2022-09-28T08:59:44.797Z,83.86
2022-09-28T09:02:33.853Z,83.57
2022-09-28T09:05:04.037Z,83.97
2022-09-28T09:07:52.160Z,83.58
2022-09-28T09:11:01.961Z,82.10
2022-09-28T09:13:50.242Z,82.22
2022-09-28T09:16:46.766Z,81.84
2022-09-28T09:19:25.869Z,82.08
2022-09-28T09:22:02.325Z,82.31
2022-09-28T09:24:47.932Z,81.53
2022-09-28T09:27:30.067Z,80.93
2022-09-28T09:30:19.345Z,80.15
2022-09-28T09:32:50.671Z,80.59
2022-09-28T09:35:40.900Z,81.20
2022-09-28T09:38:29.948Z,81.27
2022-09-28T09:41:04.852Z,79.45
2022-09-28T09:43:43.038Z,80.55
2022-09-28T09:46:50.304Z,78.82
2022-09-28T09:49:22.400Z,79.46
2022-09-28T09:51:57.968Z,79.57
2022-09-28T09:54:24.267Z,78.61
2022-09-28T09:57:13.741Z,78.36
2022-09-28T09:59:42.095Z,79.65
2022-09-28T10:02:25.697Z,79.03
2022-09-28T10:04:57.471Z,77.19
2022-09-28T10:07:29.623Z,78.94
2022-09-28T10:09:58.448Z,76.44
2022-09-28T10:12:25.924Z,75.68
2022-09-28T10:14:54.154Z,74.82
2022-09-28T10:17:26.727Z,72.58
2022-09-28T10:19:55.866Z,73.60
2022-09-28T10:22:25.017Z,73.35
2022-09-28T10:24:57.562Z,72.79
2022-09-28T10:27:35.226Z,73.11
2022-09-28T10:30:08.145Z,73.05
2022-09-28T10:32:39.549Z,73.40
2022-09-28T10:35:42.372Z,73.84
2022-09-28T10:38:18.512Z,73.09
2022-09-28T10:40:49.705Z,72.71
2022-09-28T10:43:29.003Z,72.37
2022-09-28T10:46:06.226Z,74.00
2022-09-28T10:48:50.616Z,71.71
2022-09-28T10:51:17.334Z,73.53
2022-09-28T10:53:59.476Z,73.96
2022-09-28T10:56:29.269Z,73.53
2022-09-28T10:58:56.025Z,72.30
2022-09-28T11:01:32.957Z,71.72
2022-09-28T11:04:07.561Z,72.21
2022-09-28T11:06:39.162Z,70.90
2022-09-28T11:09:23.996Z,71.09
2022-09-28T11:11:51.944Z,73.29
2022-09-28T11:14:21.061Z,73.25
2022-09-28T11:16:47.437Z,73.12
2022-09-28T11:19:20.323Z,70.92
2022-09-28T11:21:46.755Z,71.63
2022-09-28T11:24:19.065Z,71.80
2022-09-28T11:26:48.387Z,72.93
2022-09-28T11:29:34.477Z,70.98
2022-09-28T11:32:03.595Z,70.81
2022-09-28T11:34:58.115Z,71.03
2022-09-28T11:37:37.598Z,72.07
2022-09-28T11:40:39.726Z,72.56
2022-09-28T11:43:47.824Z,72.41
2022-09-28T11:46:28.966Z,72.40
2022-09-28T11:49:01.616Z,73.37
2022-09-28T11:51:33.759Z,73.67
2022-09-28T11:54:14.281Z,71.95
2022-09-28T11:56:45.970Z,71.12
2022-09-28T11:59:27.636Z,71.06
2022-09-28T12:02:01.043Z,71.06
2022-09-28T12:04:33.203Z,69.24
2022-09-28T12:07:03.531Z,71.16
2022-09-28T12:09:53.944Z,68.50
2022-09-28T12:12:31.450Z,62.66
2022-09-28T12:15:05.295Z,59.00
2022-09-28T12:17:42.855Z,53.84
2022-09-28T12:20:22.357Z,52.80
2022-09-28T12:23:05.076Z,49.92
2022-09-28T12:25:46.204Z,50.37
2022-09-28T12:28:25.692Z,52.74
2022-09-28T12:30:53.333Z,55.97
2022-09-28T12:33:20.228Z,58.66
2022-09-28T12:36:04.929Z,59.72
2022-09-28T12:39:08.420Z,57.33
2022-09-28T12:41:53.963Z,59.43
2022-09-28T12:44:54.725Z,60.97
2022-09-28T12:47:44.992Z,62.15
2022-09-28T12:50:53.936Z,61.84
2022-09-28T12:53:35.181Z,63.01
2022-09-28T12:56:08.449Z,61.92
2022-09-28T12:59:00.005Z,64.41
2022-09-28T13:01:32.310Z,62.95
2022-09-28T13:04:17.765Z,65.52
2022-09-28T13:07:01.710Z,65.90
2022-09-28T13:09:38.890Z,66.47
2022-09-28T13:12:17.459Z,64.70
2022-09-28T13:15:02.041Z,67.18
2022-09-28T13:17:42.602Z,66.64
2022-09-28T13:20:23.228Z,67.89
2022-09-28T13:23:02.307Z,68.19
2022-09-28T13:25:34.169Z,67.12
2022-09-28T13:28:06.734Z,68.08
2022-09-28T13:30:38.772Z,67.42
2022-09-28T13:33:07.705Z,64.65
2022-09-28T13:35:34.872Z,64.42
2022-09-28T13:38:17.351Z,61.42
2022-09-28T13:41:05.395Z,56.59
2022-09-28T13:44:04.119Z,53.49
2022-09-28T13:46:59.367Z,54.27
2022-09-28T13:50:11.579Z,56.96
2022-09-28T13:52:40.654Z,59.55
2022-09-28T13:55:25.372Z,61.23
2022-09-28T13:57:59.962Z,57.27
2022-09-28T14:00:31.024Z,57.21
2022-09-28T14:03:01.310Z,56.49
2022-09-28T14:05:34.294Z,56.33
2022-09-28T14:08:20.815Z,54.98
2022-09-28T14:10:52.154Z,53.88
2022-09-28T14:14:11.777Z,54.65
2022-09-28T14:16:40.260Z,52.94
2022-09-28T14:19:24.258Z,54.81
2022-09-28T14:22:06.344Z,56.72
2022-09-28T14:24:47.751Z,59.52
2022-09-28T14:27:17.054Z,59.42
2022-09-28T14:29:43.727Z,60.48
2022-09-28T14:32:22.566Z,60.52
2022-09-28T14:35:00.906Z,59.71
2022-09-28T14:37:51.067Z,58.37
2022-09-28T14:40:49.768Z,57.03
2022-09-28T14:43:38.074Z,57.94
2022-09-28T14:46:13.340Z,57.18
2022-09-28T14:49:15.412Z,56.35
2022-09-28T14:51:43.542Z,54.97
2022-09-28T14:54:13.016Z,55.20
2022-09-28T14:56:45.977Z,53.74
2022-09-28T14:59:36.298Z,55.00
2022-09-28T15:02:15.647Z,56.09
2022-09-28T15:04:51.474Z,57.57
2022-09-28T15:07:26.792Z,58.55
2022-09-28T15:09:56.023Z,58.25
2022-09-28T15:12:30.731Z,57.68
2022-09-28T15:15:07.750Z,58.14
2022-09-28T15:17:40.330Z,58.36
2022-09-28T15:20:26.286Z,61.12
2022-09-28T15:22:58.063Z,63.45
2022-09-28T15:25:30.330Z,64.03
2022-09-28T15:28:04.763Z,65.91
2022-09-28T15:30:36.621Z,66.52
2022-09-28T15:33:23.836Z,67.34
2022-09-28T15:36:02.248Z,68.64
2022-09-28T15:38:34.614Z,70.78
2022-09-28T15:41:05.437Z,70.56
2022-09-28T15:43:34.712Z,72.06
2022-09-28T15:46:16.910Z,74.23
2022-09-28T15:49:04.801Z,75.43
2022-09-28T15:51:45.020Z,74.60
2022-09-28T15:54:20.175Z,76.61
2022-09-28T15:56:52.858Z,80.07
2022-09-28T15:59:27.245Z,79.52
2022-09-28T16:02:09.760Z,82.17
2022-09-28T16:04:47.867Z,83.69
2022-09-28T16:07:19.288Z,82.87
2022-09-28T16:09:55.726Z,83.58
2022-09-28T16:12:23.929Z,82.21
2022-09-28T16:14:55.858Z,84.13
2022-09-28T16:17:32.701Z,82.10
2022-09-28T16:20:03.630Z,83.92
2022-09-28T16:22:34.156Z,83.60
2022-09-28T16:25:01.264Z,83.74
2022-09-28T16:27:41.412Z,83.16
2022-09-28T16:30:27.214Z,84.99
2022-09-28T16:32:56.420Z,85.13
2022-09-28T16:35:31.722Z,86.80
2022-09-28T16:38:00.525Z,86.02
2022-09-28T16:40:27.646Z,86.66
2022-09-28T16:42:58.541Z,86.96
2022-09-28T16:45:25.007Z,86.89
2022-09-28T16:47:52.357Z,87.65
2022-09-28T16:50:22.880Z,87.79
2022-09-28T16:53:32.726Z,88.75
2022-09-28T16:56:00.384Z,87.67
2022-09-28T16:58:27.717Z,86.88
2022-09-28T17:00:54.800Z,87.47
2022-09-28T17:03:23.616Z,87.59
2022-09-28T17:05:52.708Z,88.36
2022-09-28T17:08:22.133Z,88.00
2022-09-28T17:13:45.066Z,88.07
2022-09-28T17:16:42.963Z,87.38
2022-09-28T17:19:26.733Z,87.32
2022-09-28T17:21:53.352Z,88.41
2022-09-28T17:24:20.246Z,88.43
2022-09-28T17:26:49.191Z,87.99
2022-09-28T17:29:15.951Z,87.77
2022-09-28T17:31:44.456Z,88.24
2022-09-28T17:34:12.770Z,88.32
2022-09-28T17:36:41.682Z,89.54
2022-09-28T17:39:18.364Z,90.00
2022-09-28T17:41:45.330Z,90.06
2022-09-28T17:44:16.109Z,89.90
2022-09-28T17:46:46.242Z,90.13
2022-09-28T17:49:13.070Z,89.82
2022-09-28T17:51:39.488Z,88.79
2022-09-28T17:54:07.949Z,88.60
2022-09-28T17:56:35.544Z,88.99
2022-09-28T17:59:04.903Z,90.58
2022-09-28T18:01:34.584Z,91.97
2022-09-28T18:04:02.617Z,91.24
2022-09-28T18:06:29.089Z,90.78
2022-09-28T18:08:55.567Z,90.47
2022-09-28T18:11:22.417Z,91.03
2022-09-28T18:13:48.791Z,90.80
2022-09-28T18:16:15.734Z,91.29
2022-09-28T18:18:42.212Z,90.93
2022-09-28T18:21:09.446Z,90.96
2022-09-28T18:23:38.465Z,91.22
2022-09-28T18:26:11.123Z,90.14
2022-09-28T18:28:37.762Z,90.79
2022-09-28T18:31:13.266Z,91.04
2022-09-28T18:33:40.655Z,91.03
2022-09-28T18:36:08.368Z,90.83
2022-09-28T18:38:36.405Z,90.87
2022-09-28T18:41:17.142Z,90.59
2022-09-28T18:43:51.536Z,90.42
2022-09-28T18:46:18.670Z,90.98
2022-09-28T18:48:46.275Z,90.30
2022-09-28T18:51:12.773Z,90.66
2022-09-28T18:53:40.396Z,90.06
2022-09-28T18:56:15.390Z,90.63
2022-09-28T18:58:42.778Z,90.37
2022-09-28T19:01:36.013Z,90.76
2022-09-28T19:04:05.380Z,90.93
2022-09-28T19:06:32.083Z,90.41
2022-09-28T19:08:59.174Z,90.70
2022-09-28T19:11:26.092Z,90.56
2022-09-28T19:13:54.334Z,90.79
2022-09-28T19:16:24.344Z,90.37
2022-09-28T19:18:52.333Z,90.22
2022-09-28T19:21:19.519Z,90.95
2022-09-28T19:23:49.296Z,90.70
2022-09-28T19:26:20.835Z,90.73
2022-09-28T19:28:48.132Z,90.28
2022-09-28T19:31:15.317Z,90.77
2022-09-28T19:33:41.767Z,91.44
2022-09-28T19:36:11.316Z,91.07
2022-09-28T19:38:39.491Z,90.60
2022-09-28T19:41:39.064Z,90.58
2022-09-28T19:44:28.641Z,91.13
2022-09-28T19:46:59.971Z,90.53
2022-09-28T19:49:27.791Z,91.05
2022-09-28T19:52:14.410Z,90.19
2022-09-28T19:54:44.423Z,90.58
2022-09-28T19:57:12.016Z,91.36
2022-09-28T19:59:39.034Z,90.99
2022-09-28T20:02:06.815Z,90.69
2022-09-28T20:04:33.219Z,90.67
2022-09-28T20:07:00.172Z,91.64
2022-09-28T20:09:26.537Z,90.98
2022-09-28T20:11:53.159Z,91.76
2022-09-28T20:14:19.633Z,91.25
2022-09-28T20:16:48.957Z,91.37
2022-09-28T20:19:15.714Z,90.83
2022-09-28T20:21:42.106Z,91.19
2022-09-28T20:24:11.295Z,90.76
2022-09-28T20:26:37.915Z,90.53
2022-09-28T20:29:05.506Z,91.04
2022-09-28T20:31:31.947Z,90.19
2022-09-28T20:33:58.385Z,90.70
2022-09-28T20:36:25.691Z,90.72
2022-09-28T20:38:54.203Z,90.52
2022-09-28T20:41:22.946Z,90.72
2022-09-28T20:43:56.651Z,90.67
2022-09-28T20:46:23.393Z,90.62
2022-09-28T20:48:50.731Z,90.13
2022-09-28T20:51:19.470Z,90.44
2022-09-28T20:53:50.851Z,90.63
2022-09-28T20:56:19.085Z,90.47
2022-09-28T20:58:45.504Z,90.53
2022-09-28T21:01:23.742Z,90.67
2022-09-28T21:04:01.247Z,90.49
2022-09-28T21:06:33.343Z,91.21
2022-09-28T21:09:00.008Z,90.91
2022-09-28T21:11:28.126Z,90.50
2022-09-28T21:13:57.062Z,90.53
2022-09-28T21:16:23.872Z,90.51
2022-09-28T21:18:53.068Z,90.62
2022-09-28T21:21:21.635Z,90.29
2022-09-28T21:23:48.381Z,90.77
2022-09-28T21:26:24.457Z,90.31
2022-09-28T21:28:58.618Z,90.18
2022-09-28T21:31:29.595Z,90.47
2022-09-28T21:33:57.458Z,90.38
2022-09-28T21:36:24.774Z,90.73
2022-09-28T21:38:51.248Z,90.40
2022-09-28T21:41:17.610Z,90.76
2022-09-28T21:43:45.432Z,90.75
2022-09-28T21:46:11.976Z,90.36
2022-09-28T21:48:38.467Z,90.07
2022-09-28T21:51:07.594Z,90.50
2022-09-28T21:53:36.505Z,90.47
2022-09-28T21:56:05.597Z,89.87
2022-09-28T21:58:34.082Z,90.18
2022-09-28T22:01:03.523Z,90.46
2022-09-28T22:03:31.515Z,90.14
2022-09-28T22:05:58.175Z,90.39
2022-09-28T22:08:25.547Z,90.50
2022-09-28T22:11:02.896Z,90.13
2022-09-28T22:13:31.292Z,90.16
2022-09-28T22:15:58.785Z,90.27
2022-09-28T22:18:29.680Z,89.99
2022-09-28T22:21:03.342Z,90.04
2022-09-28T22:23:30.224Z,90.55
2022-09-28T22:26:02.218Z,90.31
2022-09-28T22:28:29.208Z,90.31
2022-09-28T22:30:56.440Z,90.45
2022-09-28T22:33:23.048Z,90.84
2022-09-28T22:35:51.113Z,90.43
2022-09-28T22:38:18.589Z,90.40
2022-09-28T22:40:54.415Z,90.64
2022-09-28T22:43:23.381Z,90.89
2022-09-28T22:45:49.941Z,90.61
2022-09-28T22:48:16.383Z,90.50
2022-09-28T22:50:52.015Z,90.64
2022-09-28T22:53:19.183Z,90.67
2022-09-28T22:55:45.625Z,90.22
2022-09-28T22:58:12.333Z,90.63
2022-09-28T23:00:38.954Z,90.26
2022-09-28T23:03:05.537Z,90.78
2022-09-28T23:05:32.058Z,91.22
2022-09-28T23:07:58.666Z,90.83
2022-09-28T23:10:25.127Z,91.20
2022-09-28T23:12:53.367Z,90.89
2022-09-28T23:15:20.202Z,91.12
2022-09-28T23:17:51.671Z,90.92
2022-09-28T23:20:19.017Z,91.23
2022-09-28T23:22:47.508Z,91.30
2022-09-28T23:25:15.300Z,90.78
2022-09-28T23:27:47.797Z,91.04
2022-09-28T23:30:15.812Z,91.36
2022-09-28T23:32:42.375Z,91.00
2022-09-28T23:35:09.584Z,91.22
2022-09-28T23:37:36.467Z,91.20
2022-09-28T23:40:04.264Z,91.50
2022-09-28T23:42:30.826Z,91.11
2022-09-28T23:44:57.370Z,91.34
2022-09-28T23:47:23.861Z,91.51
2022-09-28T23:49:50.305Z,91.97
2022-09-28T23:52:16.665Z,91.21
2022-09-28T23:54:42.974Z,91.05
2022-09-28T23:57:11.799Z,91.06
2022-09-28T23:59:38.597Z,90.64
